sensor_id;sensor_type;location;lat;lon;timestamp;P1;durP1;ratioP1;P2;durP2;ratioP2
13708;SDS011;54933;51.908;7.730;2022-08-19T00:01:46;2.30;;;2.10;;
13708;SDS011;54933;51.908;7.730;2022-08-19T00:04:14;2.57;;;2.37;;
13708;SDS011;54933;51.908;7.730;2022-08-19T00:06:43;2.10;;;2.00;;
13708;SDS011;54933;51.908;7.730;2022-08-19T00:09:11;2.43;;;2.20;;
13708;SDS011;54933;51.908;7.730;2022-08-19T00:11:38;2.17;;;2.07;;
13708;SDS011;54933;51.908;7.730;2022-08-19T00:14:05;2.13;;;2.03;;
13708;SDS011;54933;51.908;7.730;2022-08-19T00:16:31;2.17;;;2.07;;
13708;SDS011;54933;51.908;7.730;2022-08-19T00:18:57;2.10;;;2.00;;
13708;SDS011;54933;51.908;7.730;2022-08-19T00:21:23;2.07;;;1.97;;
13708;SDS011;54933;51.908;7.730;2022-08-19T00:23:49;2.17;;;2.07;;
13708;SDS011;54933;51.908;7.730;2022-08-19T00:26:15;1.80;;;1.70;;
13708;SDS011;54933;51.908;7.730;2022-08-19T00:28:40;2.43;;;2.23;;
13708;SDS011;54933;51.908;7.730;2022-08-19T00:31:06;2.57;;;2.37;;
13708;SDS011;54933;51.908;7.730;2022-08-19T00:33:33;1.93;;;1.83;;
13708;SDS011;54933;51.908;7.730;2022-08-19T00:36:03;2.20;;;2.10;;
13708;SDS011;54933;51.908;7.730;2022-08-19T00:38:29;1.90;;;1.80;;
13708;SDS011;54933;51.908;7.730;2022-08-19T00:40:55;2.13;;;2.03;;
13708;SDS011;54933;51.908;7.730;2022-08-19T00:43:22;2.33;;;2.23;;
13708;SDS011;54933;51.908;7.730;2022-08-19T00:45:50;2.00;;;1.90;;
13708;SDS011;54933;51.908;7.730;2022-08-19T00:48:16;2.30;;;2.20;;
13708;SDS011;54933;51.908;7.730;2022-08-19T00:50:43;2.03;;;1.90;;
13708;SDS011;54933;51.908;7.730;2022-08-19T00:53:11;2.43;;;2.23;;
13708;SDS011;54933;51.908;7.730;2022-08-19T00:55:40;2.03;;;1.93;;
13708;SDS011;54933;51.908;7.730;2022-08-19T00:58:08;2.00;;;1.90;;
13708;SDS011;54933;51.908;7.730;2022-08-19T01:00:37;2.07;;;1.97;;
13708;SDS011;54933;51.908;7.730;2022-08-19T01:03:03;2.10;;;2.00;;
13708;SDS011;54933;51.908;7.730;2022-08-19T01:05:31;2.30;;;2.17;;
13708;SDS011;54933;51.908;7.730;2022-08-19T01:07:58;1.67;;;1.67;;
13708;SDS011;54933;51.908;7.730;2022-08-19T01:10:26;2.00;;;1.90;;
13708;SDS011;54933;51.908;7.730;2022-08-19T01:12:55;1.70;;;1.60;;
13708;SDS011;54933;51.908;7.730;2022-08-19T01:15:23;2.17;;;2.07;;
13708;SDS011;54933;51.908;7.730;2022-08-19T01:17:52;2.20;;;2.10;;
13708;SDS011;54933;51.908;7.730;2022-08-19T01:20:20;1.90;;;1.83;;
13708;SDS011;54933;51.908;7.730;2022-08-19T01:22:51;2.00;;;1.90;;
13708;SDS011;54933;51.908;7.730;2022-08-19T01:25:20;2.40;;;2.30;;
13708;SDS011;54933;51.908;7.730;2022-08-19T01:27:48;1.93;;;1.83;;
13708;SDS011;54933;51.908;7.730;2022-08-19T01:30:21;1.87;;;1.77;;
13708;SDS011;54933;51.908;7.730;2022-08-19T01:32:54;2.37;;;2.10;;
13708;SDS011;54933;51.908;7.730;2022-08-19T01:35:20;2.10;;;2.00;;
13708;SDS011;54933;51.908;7.730;2022-08-19T01:37:49;2.23;;;2.13;;
13708;SDS011;54933;51.908;7.730;2022-08-19T01:40:24;2.03;;;1.87;;
13708;SDS011;54933;51.908;7.730;2022-08-19T01:42:52;1.90;;;1.80;;
13708;SDS011;54933;51.908;7.730;2022-08-19T01:45:19;2.17;;;2.07;;
13708;SDS011;54933;51.908;7.730;2022-08-19T01:47:47;2.13;;;2.03;;
13708;SDS011;54933;51.908;7.730;2022-08-19T01:50:13;1.90;;;1.80;;
13708;SDS011;54933;51.908;7.730;2022-08-19T01:52:39;2.10;;;1.97;;
13708;SDS011;54933;51.908;7.730;2022-08-19T01:55:07;2.10;;;2.00;;
13708;SDS011;54933;51.908;7.730;2022-08-19T01:57:35;2.30;;;2.10;;
13708;SDS011;54933;51.908;7.730;2022-08-19T02:00:04;1.80;;;1.70;;
13708;SDS011;54933;51.908;7.730;2022-08-19T02:02:31;2.00;;;1.90;;
13708;SDS011;54933;51.908;7.730;2022-08-19T02:04:56;1.93;;;1.83;;
13708;SDS011;54933;51.908;7.730;2022-08-19T02:07:22;1.83;;;1.80;;
13708;SDS011;54933;51.908;7.730;2022-08-19T02:09:47;3.33;;;2.10;;
13708;SDS011;54933;51.908;7.730;2022-08-19T02:12:13;2.00;;;1.90;;
13708;SDS011;54933;51.908;7.730;2022-08-19T02:14:39;1.70;;;1.60;;
13708;SDS011;54933;51.908;7.730;2022-08-19T02:17:05;1.87;;;1.77;;
13708;SDS011;54933;51.908;7.730;2022-08-19T02:19:30;1.90;;;1.80;;
13708;SDS011;54933;51.908;7.730;2022-08-19T02:21:57;1.70;;;1.60;;
13708;SDS011;54933;51.908;7.730;2022-08-19T02:24:23;2.07;;;1.97;;
13708;SDS011;54933;51.908;7.730;2022-08-19T02:26:49;1.60;;;1.60;;
13708;SDS011;54933;51.908;7.730;2022-08-19T02:29:14;1.77;;;1.67;;
13708;SDS011;54933;51.908;7.730;2022-08-19T02:31:39;3.10;;;1.80;;
13708;SDS011;54933;51.908;7.730;2022-08-19T02:34:04;1.60;;;1.60;;
13708;SDS011;54933;51.908;7.730;2022-08-19T02:36:30;2.03;;;1.93;;
13708;SDS011;54933;51.908;7.730;2022-08-19T02:38:55;1.67;;;1.57;;
13708;SDS011;54933;51.908;7.730;2022-08-19T02:41:22;1.90;;;1.80;;
13708;SDS011;54933;51.908;7.730;2022-08-19T02:43:53;1.90;;;1.80;;
13708;SDS011;54933;51.908;7.730;2022-08-19T02:46:24;1.80;;;1.77;;
13708;SDS011;54933;51.908;7.730;2022-08-19T02:48:53;1.73;;;1.63;;
13708;SDS011;54933;51.908;7.730;2022-08-19T02:51:20;1.57;;;1.47;;
13708;SDS011;54933;51.908;7.730;2022-08-19T02:53:51;1.67;;;1.60;;
13708;SDS011;54933;51.908;7.730;2022-08-19T02:56:16;1.70;;;1.60;;
13708;SDS011;54933;51.908;7.730;2022-08-19T02:58:42;1.73;;;1.63;;
13708;SDS011;54933;51.908;7.730;2022-08-19T03:01:08;2.10;;;2.00;;
13708;SDS011;54933;51.908;7.730;2022-08-19T03:03:35;1.80;;;1.70;;
13708;SDS011;54933;51.908;7.730;2022-08-19T03:06:18;1.70;;;1.63;;
13708;SDS011;54933;51.908;7.730;2022-08-19T03:08:45;1.80;;;1.70;;
13708;SDS011;54933;51.908;7.730;2022-08-19T03:11:16;1.53;;;1.50;;
13708;SDS011;54933;51.908;7.730;2022-08-19T03:13:47;1.80;;;1.70;;
13708;SDS011;54933;51.908;7.730;2022-08-19T03:16:16;1.80;;;1.70;;
13708;SDS011;54933;51.908;7.730;2022-08-19T03:18:45;1.80;;;1.70;;
13708;SDS011;54933;51.908;7.730;2022-08-19T03:21:15;1.73;;;1.63;;
13708;SDS011;54933;51.908;7.730;2022-08-19T03:23:45;1.43;;;1.43;;
13708;SDS011;54933;51.908;7.730;2022-08-19T03:26:10;1.67;;;1.67;;
13708;SDS011;54933;51.908;7.730;2022-08-19T03:28:35;1.63;;;1.53;;
13708;SDS011;54933;51.908;7.730;2022-08-19T03:31:03;2.20;;;2.10;;
13708;SDS011;54933;51.908;7.730;2022-08-19T03:33:31;1.80;;;1.70;;
13708;SDS011;54933;51.908;7.730;2022-08-19T03:38:34;1.90;;;1.80;;
13708;SDS011;54933;51.908;7.730;2022-08-19T03:41:04;1.80;;;1.80;;
13708;SDS011;54933;51.908;7.730;2022-08-19T03:43:33;1.73;;;1.63;;
13708;SDS011;54933;51.908;7.730;2022-08-19T03:46:00;1.60;;;1.60;;
13708;SDS011;54933;51.908;7.730;2022-08-19T03:48:32;1.60;;;1.50;;
13708;SDS011;54933;51.908;7.730;2022-08-19T03:50:58;1.73;;;1.73;;
13708;SDS011;54933;51.908;7.730;2022-08-19T03:53:24;1.67;;;1.57;;
13708;SDS011;54933;51.908;7.730;2022-08-19T03:55:51;1.80;;;1.70;;
13708;SDS011;54933;51.908;7.730;2022-08-19T03:58:17;1.77;;;1.67;;
13708;SDS011;54933;51.908;7.730;2022-08-19T04:00:43;1.70;;;1.60;;
13708;SDS011;54933;51.908;7.730;2022-08-19T04:03:08;1.80;;;1.67;;
13708;SDS011;54933;51.908;7.730;2022-08-19T04:05:33;1.90;;;1.80;;
13708;SDS011;54933;51.908;7.730;2022-08-19T04:07:59;1.87;;;1.80;;
13708;SDS011;54933;51.908;7.730;2022-08-19T04:10:25;1.87;;;1.77;;
13708;SDS011;54933;51.908;7.730;2022-08-19T04:12:50;1.90;;;1.80;;
13708;SDS011;54933;51.908;7.730;2022-08-19T04:15:16;1.77;;;1.67;;
13708;SDS011;54933;51.908;7.730;2022-08-19T04:17:41;1.97;;;1.70;;
13708;SDS011;54933;51.908;7.730;2022-08-19T04:20:06;1.80;;;1.70;;
13708;SDS011;54933;51.908;7.730;2022-08-19T04:22:32;1.97;;;1.60;;
13708;SDS011;54933;51.908;7.730;2022-08-19T04:24:57;2.00;;;1.90;;
13708;SDS011;54933;51.908;7.730;2022-08-19T04:27:22;2.07;;;1.97;;
13708;SDS011;54933;51.908;7.730;2022-08-19T04:29:48;1.97;;;1.87;;
13708;SDS011;54933;51.908;7.730;2022-08-19T04:32:13;1.43;;;1.40;;
13708;SDS011;54933;51.908;7.730;2022-08-19T04:34:40;1.43;;;1.40;;
13708;SDS011;54933;51.908;7.730;2022-08-19T04:37:07;1.73;;;1.63;;
13708;SDS011;54933;51.908;7.730;2022-08-19T04:39:36;1.53;;;1.50;;
13708;SDS011;54933;51.908;7.730;2022-08-19T04:42:20;1.70;;;1.60;;
13708;SDS011;54933;51.908;7.730;2022-08-19T04:45:08;1.30;;;1.30;;
13708;SDS011;54933;51.908;7.730;2022-08-19T04:47:36;1.60;;;1.50;;
13708;SDS011;54933;51.908;7.730;2022-08-19T04:50:02;1.70;;;1.60;;
13708;SDS011;54933;51.908;7.730;2022-08-19T04:52:29;1.50;;;1.40;;
13708;SDS011;54933;51.908;7.730;2022-08-19T04:54:57;2.70;;;1.60;;
13708;SDS011;54933;51.908;7.730;2022-08-19T04:57:23;1.40;;;1.30;;
13708;SDS011;54933;51.908;7.730;2022-08-19T04:59:48;1.50;;;1.43;;
13708;SDS011;54933;51.908;7.730;2022-08-19T05:02:13;1.67;;;1.57;;
13708;SDS011;54933;51.908;7.730;2022-08-19T05:04:39;3.43;;;1.47;;
13708;SDS011;54933;51.908;7.730;2022-08-19T05:07:05;1.90;;;1.80;;
13708;SDS011;54933;51.908;7.730;2022-08-19T05:09:31;1.60;;;1.50;;
13708;SDS011;54933;51.908;7.730;2022-08-19T05:11:56;1.30;;;1.30;;
13708;SDS011;54933;51.908;7.730;2022-08-19T05:14:22;1.97;;;1.87;;
13708;SDS011;54933;51.908;7.730;2022-08-19T05:16:48;1.60;;;1.60;;
13708;SDS011;54933;51.908;7.730;2022-08-19T05:19:13;7.87;;;1.37;;
13708;SDS011;54933;51.908;7.730;2022-08-19T05:21:58;4.00;;;2.00;;
13708;SDS011;54933;51.908;7.730;2022-08-19T05:24:42;2.83;;;2.03;;
13708;SDS011;54933;51.908;7.730;2022-08-19T05:27:08;6.43;;;1.83;;
13708;SDS011;54933;51.908;7.730;2022-08-19T05:29:33;2.40;;;1.70;;
13708;SDS011;54933;51.908;7.730;2022-08-19T05:31:59;4.63;;;1.67;;
13708;SDS011;54933;51.908;7.730;2022-08-19T05:34:26;4.73;;;1.70;;
13708;SDS011;54933;51.908;7.730;2022-08-19T05:36:56;3.43;;;1.97;;
13708;SDS011;54933;51.908;7.730;2022-08-19T05:39:24;3.53;;;2.07;;
13708;SDS011;54933;51.908;7.730;2022-08-19T05:41:52;2.27;;;2.10;;
13708;SDS011;54933;51.908;7.730;2022-08-19T05:44:22;6.57;;;2.10;;
13708;SDS011;54933;51.908;7.730;2022-08-19T05:46:48;3.07;;;2.00;;
13708;SDS011;54933;51.908;7.730;2022-08-19T05:49:15;7.03;;;2.00;;
13708;SDS011;54933;51.908;7.730;2022-08-19T05:51:41;1.87;;;1.77;;
13708;SDS011;54933;51.908;7.730;2022-08-19T05:54:07;2.90;;;1.90;;
13708;SDS011;54933;51.908;7.730;2022-08-19T05:56:34;1.87;;;1.40;;
13708;SDS011;54933;51.908;7.730;2022-08-19T05:59:03;3.10;;;1.83;;
13708;SDS011;54933;51.908;7.730;2022-08-19T06:01:39;5.27;;;2.07;;
13708;SDS011;54933;51.908;7.730;2022-08-19T06:04:06;1.87;;;1.70;;
13708;SDS011;54933;51.908;7.730;2022-08-19T06:06:32;3.83;;;1.40;;
13708;SDS011;54933;51.908;7.730;2022-08-19T06:08:59;1.87;;;1.70;;
13708;SDS011;54933;51.908;7.730;2022-08-19T06:11:33;1.83;;;1.60;;
13708;SDS011;54933;51.908;7.730;2022-08-19T06:14:00;5.50;;;1.63;;
13708;SDS011;54933;51.908;7.730;2022-08-19T06:16:27;1.53;;;1.43;;
13708;SDS011;54933;51.908;7.730;2022-08-19T06:18:54;2.40;;;1.67;;
13708;SDS011;54933;51.908;7.730;2022-08-19T06:21:22;1.90;;;1.80;;
13708;SDS011;54933;51.908;7.730;2022-08-19T06:23:50;3.73;;;1.77;;
13708;SDS011;54933;51.908;7.730;2022-08-19T06:26:16;1.90;;;1.80;;
13708;SDS011;54933;51.908;7.730;2022-08-19T06:28:44;4.17;;;1.93;;
13708;SDS011;54933;51.908;7.730;2022-08-19T06:31:19;2.77;;;2.03;;
13708;SDS011;54933;51.908;7.730;2022-08-19T06:33:47;3.33;;;2.00;;
13708;SDS011;54933;51.908;7.730;2022-08-19T06:36:20;3.00;;;2.07;;
13708;SDS011;54933;51.908;7.730;2022-08-19T06:38:49;3.87;;;1.97;;
13708;SDS011;54933;51.908;7.730;2022-08-19T06:41:14;2.10;;;2.00;;
13708;SDS011;54933;51.908;7.730;2022-08-19T06:43:39;3.37;;;2.00;;
13708;SDS011;54933;51.908;7.730;2022-08-19T06:46:09;3.60;;;2.57;;
13708;SDS011;54933;51.908;7.730;2022-08-19T06:48:36;3.03;;;1.80;;
13708;SDS011;54933;51.908;7.730;2022-08-19T06:51:01;2.43;;;2.07;;
13708;SDS011;54933;51.908;7.730;2022-08-19T06:53:30;2.73;;;2.00;;
13708;SDS011;54933;51.908;7.730;2022-08-19T06:55:55;2.40;;;2.20;;
13708;SDS011;54933;51.908;7.730;2022-08-19T06:58:25;3.67;;;2.20;;
13708;SDS011;54933;51.908;7.730;2022-08-19T07:00:50;2.07;;;1.90;;
13708;SDS011;54933;51.908;7.730;2022-08-19T07:03:16;3.27;;;2.00;;
13708;SDS011;54933;51.908;7.730;2022-08-19T07:05:42;3.97;;;2.00;;
13708;SDS011;54933;51.908;7.730;2022-08-19T07:08:08;2.40;;;2.17;;
13708;SDS011;54933;51.908;7.730;2022-08-19T07:10:34;2.83;;;1.77;;
13708;SDS011;54933;51.908;7.730;2022-08-19T07:13:01;3.90;;;1.90;;
13708;SDS011;54933;51.908;7.730;2022-08-19T07:15:28;1.70;;;1.60;;
13708;SDS011;54933;51.908;7.730;2022-08-19T07:17:53;2.33;;;2.10;;
13708;SDS011;54933;51.908;7.730;2022-08-19T07:20:18;3.13;;;2.40;;
13708;SDS011;54933;51.908;7.730;2022-08-19T07:22:44;4.30;;;2.37;;
13708;SDS011;54933;51.908;7.730;2022-08-19T07:25:10;2.50;;;1.90;;
13708;SDS011;54933;51.908;7.730;2022-08-19T07:27:38;2.80;;;1.80;;
13708;SDS011;54933;51.908;7.730;2022-08-19T07:30:03;2.23;;;2.10;;
13708;SDS011;54933;51.908;7.730;2022-08-19T07:32:30;3.90;;;2.00;;
13708;SDS011;54933;51.908;7.730;2022-08-19T07:34:55;2.17;;;1.97;;
13708;SDS011;54933;51.908;7.730;2022-08-19T07:37:21;2.20;;;2.00;;
13708;SDS011;54933;51.908;7.730;2022-08-19T07:39:46;2.00;;;1.83;;
13708;SDS011;54933;51.908;7.730;2022-08-19T07:42:11;1.70;;;1.60;;
13708;SDS011;54933;51.908;7.730;2022-08-19T07:44:38;2.30;;;2.20;;
13708;SDS011;54933;51.908;7.730;2022-08-19T07:47:05;2.87;;;2.00;;
13708;SDS011;54933;51.908;7.730;2022-08-19T07:49:32;2.17;;;1.80;;
13708;SDS011;54933;51.908;7.730;2022-08-19T07:52:00;2.17;;;1.97;;
13708;SDS011;54933;51.908;7.730;2022-08-19T07:54:29;3.87;;;1.93;;
13708;SDS011;54933;51.908;7.730;2022-08-19T07:56:56;1.83;;;1.73;;
13708;SDS011;54933;51.908;7.730;2022-08-19T07:59:23;4.10;;;2.10;;
13708;SDS011;54933;51.908;7.730;2022-08-19T08:01:49;2.50;;;1.90;;
13708;SDS011;54933;51.908;7.730;2022-08-19T08:04:15;1.70;;;1.60;;
13708;SDS011;54933;51.908;7.730;2022-08-19T08:06:59;1.83;;;1.73;;
13708;SDS011;54933;51.908;7.730;2022-08-19T08:09:43;1.90;;;1.80;;
13708;SDS011;54933;51.908;7.730;2022-08-19T08:12:11;2.83;;;1.90;;
13708;SDS011;54933;51.908;7.730;2022-08-19T08:14:44;2.23;;;2.03;;
13708;SDS011;54933;51.908;7.730;2022-08-19T08:17:12;2.70;;;1.73;;
13708;SDS011;54933;51.908;7.730;2022-08-19T08:19:38;2.73;;;1.60;;
13708;SDS011;54933;51.908;7.730;2022-08-19T08:22:06;2.30;;;2.10;;
13708;SDS011;54933;51.908;7.730;2022-08-19T08:24:32;3.50;;;2.03;;
13708;SDS011;54933;51.908;7.730;2022-08-19T08:26:59;1.80;;;1.70;;
13708;SDS011;54933;51.908;7.730;2022-08-19T08:29:28;4.13;;;1.87;;
13708;SDS011;54933;51.908;7.730;2022-08-19T08:31:55;2.03;;;1.60;;
13708;SDS011;54933;51.908;7.730;2022-08-19T08:34:21;1.67;;;1.57;;
13708;SDS011;54933;51.908;7.730;2022-08-19T08:36:47;2.00;;;1.90;;
13708;SDS011;54933;51.908;7.730;2022-08-19T08:39:13;1.70;;;1.60;;
13708;SDS011;54933;51.908;7.730;2022-08-19T08:44:37;1.63;;;1.60;;
13708;SDS011;54933;51.908;7.730;2022-08-19T08:47:13;3.03;;;1.83;;
13708;SDS011;54933;51.908;7.730;2022-08-19T08:54:50;2.17;;;1.87;;
13708;SDS011;54933;51.908;7.730;2022-08-19T08:57:35;1.83;;;1.73;;
13708;SDS011;54933;51.908;7.730;2022-08-19T09:00:04;2.10;;;2.00;;
13708;SDS011;54933;51.908;7.730;2022-08-19T09:02:32;2.03;;;1.83;;
13708;SDS011;54933;51.908;7.730;2022-08-19T09:04:57;2.30;;;2.10;;
13708;SDS011;54933;51.908;7.730;2022-08-19T09:07:34;2.00;;;1.90;;
13708;SDS011;54933;51.908;7.730;2022-08-19T09:10:10;1.70;;;1.60;;
13708;SDS011;54933;51.908;7.730;2022-08-19T09:15:31;2.80;;;1.73;;
13708;SDS011;54933;51.908;7.730;2022-08-19T09:18:03;1.60;;;1.50;;
13708;SDS011;54933;51.908;7.730;2022-08-19T09:20:29;1.80;;;1.70;;
13708;SDS011;54933;51.908;7.730;2022-08-19T09:22:56;2.17;;;1.83;;
13708;SDS011;54933;51.908;7.730;2022-08-19T09:25:22;1.93;;;1.80;;
13708;SDS011;54933;51.908;7.730;2022-08-19T09:27:48;2.03;;;1.90;;
13708;SDS011;54933;51.908;7.730;2022-08-19T09:30:25;2.07;;;1.87;;
13708;SDS011;54933;51.908;7.730;2022-08-19T09:32:53;1.90;;;1.80;;
13708;SDS011;54933;51.908;7.730;2022-08-19T09:35:19;2.00;;;1.90;;
13708;SDS011;54933;51.908;7.730;2022-08-19T09:37:47;1.67;;;1.60;;
13708;SDS011;54933;51.908;7.730;2022-08-19T09:40:14;2.93;;;1.73;;
13708;SDS011;54933;51.908;7.730;2022-08-19T09:42:40;1.97;;;1.87;;
13708;SDS011;54933;51.908;7.730;2022-08-19T09:45:08;2.70;;;1.70;;
13708;SDS011;54933;51.908;7.730;2022-08-19T09:47:34;1.90;;;1.80;;
13708;SDS011;54933;51.908;7.730;2022-08-19T09:50:02;1.80;;;1.70;;
13708;SDS011;54933;51.908;7.730;2022-08-19T09:52:31;2.77;;;1.73;;
13708;SDS011;54933;51.908;7.730;2022-08-19T09:54:57;1.67;;;1.57;;
13708;SDS011;54933;51.908;7.730;2022-08-19T09:57:22;2.97;;;1.80;;
13708;SDS011;54933;51.908;7.730;2022-08-19T09:59:47;2.20;;;1.97;;
13708;SDS011;54933;51.908;7.730;2022-08-19T10:02:13;2.10;;;1.90;;
13708;SDS011;54933;51.908;7.730;2022-08-19T10:04:39;2.70;;;2.50;;
13708;SDS011;54933;51.908;7.730;2022-08-19T10:07:23;3.43;;;1.83;;
13708;SDS011;54933;51.908;7.730;2022-08-19T10:09:49;2.63;;;1.90;;
13708;SDS011;54933;51.908;7.730;2022-08-19T10:12:14;1.77;;;1.70;;
13708;SDS011;54933;51.908;7.730;2022-08-19T10:14:40;2.23;;;2.13;;
13708;SDS011;54933;51.908;7.730;2022-08-19T10:17:05;3.63;;;2.07;;
13708;SDS011;54933;51.908;7.730;2022-08-19T10:19:31;2.47;;;1.87;;
13708;SDS011;54933;51.908;7.730;2022-08-19T10:22:02;1.90;;;1.80;;
13708;SDS011;54933;51.908;7.730;2022-08-19T10:24:29;2.43;;;2.23;;
13708;SDS011;54933;51.908;7.730;2022-08-19T10:26:55;1.83;;;1.73;;
13708;SDS011;54933;51.908;7.730;2022-08-19T10:29:21;1.73;;;1.63;;
13708;SDS011;54933;51.908;7.730;2022-08-19T10:31:47;2.90;;;2.10;;
13708;SDS011;54933;51.908;7.730;2022-08-19T10:34:13;2.20;;;2.00;;
13708;SDS011;54933;51.908;7.730;2022-08-19T10:36:38;1.83;;;1.73;;
13708;SDS011;54933;51.908;7.730;2022-08-19T10:39:05;1.87;;;1.77;;
13708;SDS011;54933;51.908;7.730;2022-08-19T10:41:33;3.47;;;1.80;;
13708;SDS011;54933;51.908;7.730;2022-08-19T10:44:02;2.93;;;1.70;;
13708;SDS011;54933;51.908;7.730;2022-08-19T10:46:30;1.77;;;1.77;;
13708;SDS011;54933;51.908;7.730;2022-08-19T10:48:57;1.70;;;1.60;;
13708;SDS011;54933;51.908;7.730;2022-08-19T10:51:23;2.90;;;1.77;;
13708;SDS011;54933;51.908;7.730;2022-08-19T10:54:07;1.90;;;1.80;;
13708;SDS011;54933;51.908;7.730;2022-08-19T10:56:33;2.07;;;1.97;;
13708;SDS011;54933;51.908;7.730;2022-08-19T10:59:17;2.40;;;1.70;;
13708;SDS011;54933;51.908;7.730;2022-08-19T11:01:52;1.80;;;1.70;;
13708;SDS011;54933;51.908;7.730;2022-08-19T11:04:19;1.83;;;1.73;;
13708;SDS011;54933;51.908;7.730;2022-08-19T11:06:46;1.70;;;1.60;;
13708;SDS011;54933;51.908;7.730;2022-08-19T11:09:13;2.10;;;2.00;;
13708;SDS011;54933;51.908;7.730;2022-08-19T11:11:41;2.00;;;1.77;;
13708;SDS011;54933;51.908;7.730;2022-08-19T11:14:07;2.17;;;1.97;;
13708;SDS011;54933;51.908;7.730;2022-08-19T11:16:34;1.70;;;1.60;;
13708;SDS011;54933;51.908;7.730;2022-08-19T11:19:00;2.00;;;1.90;;
13708;SDS011;54933;51.908;7.730;2022-08-19T11:21:28;2.00;;;1.90;;
13708;SDS011;54933;51.908;7.730;2022-08-19T11:23:57;1.93;;;1.80;;
13708;SDS011;54933;51.908;7.730;2022-08-19T11:26:25;2.10;;;2.00;;
13708;SDS011;54933;51.908;7.730;2022-08-19T11:28:51;1.93;;;1.83;;
13708;SDS011;54933;51.908;7.730;2022-08-19T11:31:20;1.87;;;1.77;;
13708;SDS011;54933;51.908;7.730;2022-08-19T11:33:48;2.50;;;1.53;;
13708;SDS011;54933;51.908;7.730;2022-08-19T11:36:18;2.03;;;1.80;;
13708;SDS011;54933;51.908;7.730;2022-08-19T11:38:45;1.80;;;1.70;;
13708;SDS011;54933;51.908;7.730;2022-08-19T11:41:13;2.10;;;2.00;;
13708;SDS011;54933;51.908;7.730;2022-08-19T11:43:39;2.30;;;1.83;;
13708;SDS011;54933;51.908;7.730;2022-08-19T11:46:06;1.97;;;1.80;;
13708;SDS011;54933;51.908;7.730;2022-08-19T11:48:32;2.07;;;1.90;;
13708;SDS011;54933;51.908;7.730;2022-08-19T11:50:58;1.80;;;1.70;;
13708;SDS011;54933;51.908;7.730;2022-08-19T11:53:24;1.90;;;1.80;;
13708;SDS011;54933;51.908;7.730;2022-08-19T11:55:49;2.17;;;2.07;;
13708;SDS011;54933;51.908;7.730;2022-08-19T11:58:21;1.80;;;1.70;;
13708;SDS011;54933;51.908;7.730;2022-08-19T12:00:47;2.23;;;2.03;;
13708;SDS011;54933;51.908;7.730;2022-08-19T12:03:12;1.90;;;1.80;;
13708;SDS011;54933;51.908;7.730;2022-08-19T12:05:39;1.87;;;1.77;;
13708;SDS011;54933;51.908;7.730;2022-08-19T12:08:05;1.97;;;1.90;;
13708;SDS011;54933;51.908;7.730;2022-08-19T12:10:30;2.13;;;2.03;;
13708;SDS011;54933;51.908;7.730;2022-08-19T12:12:56;1.83;;;1.73;;
13708;SDS011;54933;51.908;7.730;2022-08-19T12:15:21;2.13;;;2.03;;
13708;SDS011;54933;51.908;7.730;2022-08-19T12:17:46;1.90;;;1.80;;
13708;SDS011;54933;51.908;7.730;2022-08-19T12:20:12;2.30;;;2.10;;
13708;SDS011;54933;51.908;7.730;2022-08-19T12:22:40;2.03;;;1.93;;
13708;SDS011;54933;51.908;7.730;2022-08-19T12:25:09;1.80;;;1.70;;
13708;SDS011;54933;51.908;7.730;2022-08-19T12:27:35;1.97;;;1.87;;
13708;SDS011;54933;51.908;7.730;2022-08-19T12:30:02;2.53;;;2.03;;
13708;SDS011;54933;51.908;7.730;2022-08-19T12:32:28;1.90;;;1.80;;
13708;SDS011;54933;51.908;7.730;2022-08-19T12:34:54;2.00;;;1.90;;
13708;SDS011;54933;51.908;7.730;2022-08-19T12:37:19;2.10;;;2.00;;
13708;SDS011;54933;51.908;7.730;2022-08-19T12:39:45;2.07;;;1.97;;
13708;SDS011;54933;51.908;7.730;2022-08-19T12:42:11;2.10;;;2.00;;
13708;SDS011;54933;51.908;7.730;2022-08-19T12:44:38;1.90;;;1.80;;
13708;SDS011;54933;51.908;7.730;2022-08-19T12:47:05;2.33;;;2.23;;
13708;SDS011;54933;51.908;7.730;2022-08-19T12:49:31;2.23;;;2.03;;
13708;SDS011;54933;51.908;7.730;2022-08-19T12:51:59;2.00;;;1.90;;
13708;SDS011;54933;51.908;7.730;2022-08-19T12:54:25;1.87;;;1.77;;
13708;SDS011;54933;51.908;7.730;2022-08-19T12:56:51;1.80;;;1.70;;
13708;SDS011;54933;51.908;7.730;2022-08-19T12:59:16;1.67;;;1.50;;
13708;SDS011;54933;51.908;7.730;2022-08-19T13:01:43;1.87;;;1.77;;
13708;SDS011;54933;51.908;7.730;2022-08-19T13:04:09;2.10;;;2.00;;
13708;SDS011;54933;51.908;7.730;2022-08-19T13:06:35;1.90;;;1.80;;
13708;SDS011;54933;51.908;7.730;2022-08-19T13:09:00;2.03;;;1.87;;
13708;SDS011;54933;51.908;7.730;2022-08-19T13:11:26;1.90;;;1.80;;
13708;SDS011;54933;51.908;7.730;2022-08-19T13:13:52;1.80;;;1.70;;
13708;SDS011;54933;51.908;7.730;2022-08-19T13:16:20;2.10;;;2.00;;
13708;SDS011;54933;51.908;7.730;2022-08-19T13:18:46;1.83;;;1.83;;
13708;SDS011;54933;51.908;7.730;2022-08-19T13:21:17;2.10;;;2.00;;
13708;SDS011;54933;51.908;7.730;2022-08-19T13:23:44;2.57;;;2.37;;
13708;SDS011;54933;51.908;7.730;2022-08-19T13:26:10;2.10;;;2.00;;
13708;SDS011;54933;51.908;7.730;2022-08-19T13:28:37;2.20;;;2.10;;
13708;SDS011;54933;51.908;7.730;2022-08-19T13:31:23;1.93;;;1.83;;
13708;SDS011;54933;51.908;7.730;2022-08-19T13:34:08;2.30;;;2.20;;
13708;SDS011;54933;51.908;7.730;2022-08-19T13:36:34;2.03;;;1.93;;
13708;SDS011;54933;51.908;7.730;2022-08-19T13:39:00;2.13;;;2.03;;
13708;SDS011;54933;51.908;7.730;2022-08-19T13:41:26;2.13;;;2.03;;
13708;SDS011;54933;51.908;7.730;2022-08-19T13:43:52;2.50;;;2.30;;
13708;SDS011;54933;51.908;7.730;2022-08-19T13:46:17;2.17;;;2.07;;
13708;SDS011;54933;51.908;7.730;2022-08-19T13:48:44;2.37;;;2.20;;
13708;SDS011;54933;51.908;7.730;2022-08-19T13:51:10;2.37;;;2.17;;
13708;SDS011;54933;51.908;7.730;2022-08-19T13:53:36;2.70;;;2.40;;
13708;SDS011;54933;51.908;7.730;2022-08-19T13:56:05;2.43;;;2.23;;
13708;SDS011;54933;51.908;7.730;2022-08-19T13:58:31;2.10;;;2.00;;
13708;SDS011;54933;51.908;7.730;2022-08-19T14:00:57;2.50;;;2.33;;
13708;SDS011;54933;51.908;7.730;2022-08-19T14:03:24;2.20;;;2.10;;
13708;SDS011;54933;51.908;7.730;2022-08-19T14:05:49;3.60;;;3.30;;
13708;SDS011;54933;51.908;7.730;2022-08-19T14:08:15;2.40;;;2.30;;
13708;SDS011;54933;51.908;7.730;2022-08-19T14:10:41;2.17;;;2.07;;
13708;SDS011;54933;51.908;7.730;2022-08-19T14:13:08;2.40;;;2.20;;
13708;SDS011;54933;51.908;7.730;2022-08-19T14:15:34;2.60;;;2.40;;
13708;SDS011;54933;51.908;7.730;2022-08-19T14:17:59;2.77;;;2.40;;
13708;SDS011;54933;51.908;7.730;2022-08-19T14:20:24;2.60;;;2.40;;
13708;SDS011;54933;51.908;7.730;2022-08-19T14:22:50;2.47;;;2.37;;
13708;SDS011;54933;51.908;7.730;2022-08-19T14:25:17;2.70;;;2.50;;
13708;SDS011;54933;51.908;7.730;2022-08-19T14:27:45;5.27;;;2.77;;
13708;SDS011;54933;51.908;7.730;2022-08-19T14:30:11;2.50;;;2.37;;
13708;SDS011;54933;51.908;7.730;2022-08-19T14:32:39;2.50;;;2.40;;
13708;SDS011;54933;51.908;7.730;2022-08-19T14:35:05;2.77;;;2.57;;
13708;SDS011;54933;51.908;7.730;2022-08-19T14:37:32;2.40;;;2.27;;
13708;SDS011;54933;51.908;7.730;2022-08-19T14:39:58;3.67;;;3.27;;
13708;SDS011;54933;51.908;7.730;2022-08-19T14:42:24;2.63;;;2.43;;
13708;SDS011;54933;51.908;7.730;2022-08-19T14:44:49;3.60;;;2.93;;
13708;SDS011;54933;51.908;7.730;2022-08-19T14:47:15;2.83;;;2.70;;
13708;SDS011;54933;51.908;7.730;2022-08-19T14:49:40;3.23;;;2.97;;
13708;SDS011;54933;51.908;7.730;2022-08-19T14:52:05;2.40;;;2.30;;
13708;SDS011;54933;51.908;7.730;2022-08-19T14:54:31;3.00;;;2.77;;
13708;SDS011;54933;51.908;7.730;2022-08-19T14:56:56;3.43;;;3.00;;
13708;SDS011;54933;51.908;7.730;2022-08-19T14:59:21;11.60;;;4.07;;
13708;SDS011;54933;51.908;7.730;2022-08-19T15:01:47;4.27;;;2.80;;
13708;SDS011;54933;51.908;7.730;2022-08-19T15:04:13;2.87;;;2.67;;